CFB Cold Lake
CYOD : now visible

Airfield :











YOU CAN JOIN US ON...

 
LOGIN :

Register | Disclaimer

   EN    FR    IT 

 









Legend :    VFR   Marginal VFR   IFR   Intensive IFR   Very Intensive IFR
Visi :
Ceiling :
>= 8 km
>= 3000ft
5 to 8 km
1000 to 3000 ft
1500m to 5 km
500 to 1000 ft
800 to 1500m
200 to 500 ft
< 800m
< 200 ft
Symbols :   Thunderstorms  Fog  Heavy snow  Heavy precipitations  Wind > 20 kt






- Airport Elevation : 1775 ft
- IATA code : YOD


CYOD - CFB Cold Lake

CURRENT METAR :
  • 070500Z 00000KT 15SM FEW190 16/11 A2988 RMK AC2 SLP122

EXPIRED METARs :
  • 070400Z 19003KT 15SM FEW060 FEW190 18/11 A2988 RMK CU1AC2 SLP120
  • 070300Z 28002KT 15SM FEW060 20/10 A2988 RMK CU1 SLP119

TAF TAF CYOD
Valid from the 07 at 06:00 until the 08 at 06:00 UTC


070530Z 0706/0806 VRB03KT P6SM FEW060 SCT190
BECMG 0706/0708 SCT050 BKN100
FM071000 VRB03KT P6SM FEW020 BKN050 OVC200
FM071700 VRB03KT P6SM SCT050
TEMPO 0717/0806 P6SM -SHRA BKN050
PROB30 0718/0802 VRB15G25KT 5SM TSRA BR BKN040CB RMK NXT FCST BY 071200Z
CZEG FIR / North America



MET'MAP, your aeronautical weather chart ! - Copyright ORBIFLY December 2007 - Disclaimer

ORBIFLY MET'MAP TEAM :

Programming & Development : Alexandra Zaïnal
Concept & original design : Baudouin d'Aumeries
Assistance for programming : Marc-Olivier Méhu
Technical & hardware support : Manuel Goepfert

Contact : metmap@orbifly.com




SOURCES & CREDITS :

   NOAA       Earth
Advisory